Time;durP1;ratioP1;P1;durP2;ratioP2;P2;SDS_P1;SDS_P2;PMS_P1;PMS_P2;Temp;Humidity;BMP_temperature;BMP_pressure;BME280_temperature;BME280_humidity;BME280_pressure;Samples;Min_cycle;Max_cycle;Signal;HPM_P1;HPM_P2
2023/10/31 00:00:42;;;;;;;2.15;1.95;;;11.60;99.90;;;12.09;100.00;96374.59;10427792;28;20228;-66
2023/10/31 00:05:46;;;;;;;2.75;1.95;;;11.60;99.90;;;12.09;100.00;96377.16;10426893;28;20251;-67
2023/10/31 00:10:49;;;;;;;1.85;1.73;;;11.60;99.90;;;12.14;100.00;96380.72;10428913;28;20709;-67
2023/10/31 00:15:54;;;;;;;2.22;1.63;;;11.60;99.90;;;12.06;100.00;96391.59;10427713;28;20232;-67
2023/10/31 00:20:57;;;;;;;1.98;1.88;;;11.50;99.90;;;12.04;100.00;96399.22;10425191;28;20229;-67
2023/10/31 00:26:00;;;;;;;2.03;1.80;;;11.50;99.90;;;11.94;100.00;96389.56;10422917;28;20609;-67
2023/10/31 00:31:06;;;;;;;1.70;1.70;;;11.40;99.90;;;11.96;100.00;96395.59;10430385;28;20594;-67
2023/10/31 00:36:10;;;;;;;1.85;1.65;;;11.40;99.90;;;11.98;100.00;96386.25;10425728;28;20229;-67
2023/10/31 00:41:13;;;;;;;1.50;1.40;;;11.50;99.90;;;12.00;100.00;96397.41;10427240;28;20237;-67
2023/10/31 00:46:18;;;;;;;1.83;1.73;;;11.40;99.90;;;12.01;100.00;96396.56;10432142;28;20723;-67
2023/10/31 00:51:21;;;;;;;1.80;1.70;;;11.40;99.90;;;11.97;100.00;96407.56;10438043;28;20248;-66
2023/10/31 00:56:24;;;;;;;1.75;1.65;;;11.40;99.90;;;11.95;100.00;96409.22;10434680;28;20232;-67
2023/10/31 01:01:29;;;;;;;1.73;1.63;;;11.40;99.90;;;12.03;100.00;96402.63;10434901;28;20855;-67
2023/10/31 01:06:32;;;;;;;1.70;1.60;;;11.40;99.90;;;11.84;100.00;96414.00;10435843;28;20229;-67
2023/10/31 01:11:35;;;;;;;1.50;1.50;;;11.30;99.90;;;11.87;100.00;96401.31;10435310;28;20721;-66
2023/10/31 01:16:41;;;;;;;1.63;1.50;;;11.30;99.90;;;11.90;100.00;96410.78;10434566;28;20228;-66
2023/10/31 01:21:44;;;;;;;1.25;1.25;;;11.30;99.90;;;11.81;100.00;96413.03;10432562;28;20686;-67
2023/10/31 01:26:47;;;;;;;1.15;1.13;;;11.20;99.90;;;11.80;100.00;96424.13;10431153;28;20302;-67
2023/10/31 01:31:52;;;;;;;1.75;1.40;;;11.20;99.90;;;11.69;100.00;96426.34;10435669;28;20232;-67
2023/10/31 01:37:03;;;;;;;1.60;1.50;;;11.20;99.90;;;11.72;100.00;96445.22;10432263;28;20610;-68
2023/10/31 01:42:07;;;;;;;1.67;1.58;;;11.30;99.90;;;11.77;100.00;96444.50;10431172;28;20612;-67
2023/10/31 01:47:11;;;;;;;2.08;1.55;;;11.30;99.90;;;11.83;100.00;96453.22;10431715;28;20772;-67
2023/10/31 01:52:15;;;;;;;1.98;1.50;;;11.20;99.90;;;11.77;100.00;96465.00;10432251;28;20242;-67
2023/10/31 01:57:20;;;;;;;1.38;1.33;;;11.20;99.90;;;11.72;100.00;96482.75;10428706;28;20239;-67
2023/10/31 02:02:26;;;;;;;1.58;1.48;;;11.20;99.90;;;11.80;100.00;96496.66;10434116;28;20320;-68
2023/10/31 02:07:29;;;;;;;1.58;1.52;;;11.20;99.90;;;11.67;100.00;96504.78;10433704;28;20363;-67
2023/10/31 02:12:34;;;;;;;2.05;1.67;;;11.10;99.90;;;11.71;100.00;96507.50;10427484;28;20229;-67
2023/10/31 02:17:38;;;;;;;1.75;1.65;;;11.10;99.90;;;11.75;100.00;96523.81;10432899;28;20220;-67
2023/10/31 02:22:43;;;;;;;1.80;1.70;;;11.10;99.90;;;11.68;100.00;96525.31;10428384;28;20762;-67
2023/10/31 02:27:46;;;;;;;1.60;1.50;;;11.10;99.90;;;11.65;100.00;96538.00;10427733;28;20232;-67
2023/10/31 02:32:50;;;;;;;1.75;1.65;;;11.00;99.90;;;11.56;100.00;96535.19;10432716;28;20216;-66
2023/10/31 02:37:54;;;;;;;1.85;1.52;;;10.90;99.90;;;11.50;100.00;96529.84;10431707;28;20839;-67
2023/10/31 02:42:58;;;;;;;1.70;1.60;;;10.90;99.90;;;11.42;100.00;96529.63;10427120;28;20232;-67
2023/10/31 02:48:01;;;;;;;3.75;1.70;;;10.80;99.90;;;11.38;100.00;96527.75;10433113;28;20229;-67
2023/10/31 02:53:05;;;;;;;1.42;1.33;;;10.80;99.90;;;11.36;100.00;96526.88;10431393;28;20589;-66
2023/10/31 02:58:09;;;;;;;1.63;1.52;;;10.70;99.90;;;11.28;100.00;96524.03;10428071;28;20229;-66
2023/10/31 03:03:12;;;;;;;1.70;1.70;;;10.70;99.90;;;11.27;100.00;96524.88;10428156;28;20365;-67
2023/10/31 03:08:20;;;;;;;3.13;1.73;;;10.60;99.90;;;11.21;100.00;96522.09;10430812;28;20910;-67
2023/10/31 03:13:23;;;;;;;1.58;1.42;;;10.60;99.90;;;11.14;100.00;96544.88;10428643;28;20686;-67
2023/10/31 03:18:26;;;;;;;1.70;1.60;;;10.50;99.90;;;11.07;100.00;96546.34;10428177;28;20235;-68
2023/10/31 03:23:31;;;;;;;1.65;1.55;;;10.40;99.90;;;10.96;100.00;96545.09;10430723;28;20609;-67
2023/10/31 03:28:34;;;;;;;1.95;1.50;;;10.30;99.90;;;10.78;100.00;96547.91;10426907;28;20221;-66
2023/10/31 03:33:37;;;;;;;2.33;1.63;;;10.20;99.90;;;10.81;100.00;96546.31;10426906;28;20233;-66
2023/10/31 03:38:42;;;;;;;2.13;1.90;;;10.20;99.90;;;10.79;100.00;96555.63;10428437;28;20221;-68
2023/10/31 03:43:45;;;;;;;1.70;1.60;;;10.10;99.90;;;10.69;100.00;96562.91;10430347;28;20256;-66
2023/10/31 03:48:49;;;;;;;1.98;1.70;;;10.00;99.90;;;10.72;100.00;96569.00;10430081;28;20245;-67
2023/10/31 03:53:53;;;;;;;1.90;1.70;;;10.00;99.90;;;10.80;100.00;96567.59;10430063;28;20233;-66
2023/10/31 03:58:57;;;;;;;1.60;1.50;;;10.10;99.90;;;10.80;100.00;96571.84;10428452;28;20298;-67
2023/10/31 04:04:00;;;;;;;1.73;1.63;;;10.10;99.90;;;10.71;100.00;96571.53;10429424;28;20294;-67
2023/10/31 04:09:05;;;;;;;2.45;1.60;;;10.00;99.90;;;10.59;100.00;96577.94;10428032;28;21981;-67
2023/10/31 04:14:08;;;;;;;1.77;1.67;;;10.00;99.90;;;10.57;100.00;96574.44;10430696;28;20232;-67
2023/10/31 04:19:11;;;;;;;2.08;1.98;;;9.90;99.90;;;10.59;100.00;96580.50;10430122;28;20298;-67
2023/10/31 04:24:16;;;;;;;1.85;1.80;;;10.00;99.90;;;10.47;100.00;96586.81;10434232;28;20784;-66
2023/10/31 04:29:19;;;;;;;1.80;1.70;;;9.90;99.90;;;10.36;100.00;96599.22;10438612;28;21060;-66
2023/10/31 04:34:22;;;;;;;2.13;1.98;;;9.80;99.90;;;10.37;100.00;96591.59;10432848;28;20329;-67
2023/10/31 04:39:27;;;;;;;2.13;2.00;;;9.80;99.90;;;10.43;100.00;96605.41;10435188;28;20221;-67
2023/10/31 04:44:30;;;;;;;2.42;1.50;;;9.80;99.90;;;10.37;100.00;96608.59;10433887;28;20744;-66
2023/10/31 04:49:36;;;;;;;1.70;1.60;;;9.80;99.90;;;10.44;100.00;96607.13;10433596;28;21380;-66
2023/10/31 04:54:41;;;;;;;2.15;2.00;;;9.90;99.90;;;10.50;100.00;96612.47;10425963;28;20229;-67
2023/10/31 04:59:44;;;;;;;2.17;1.70;;;9.90;99.90;;;10.43;100.00;96615.63;10425483;28;21251;-67
2023/10/31 05:04:50;;;;;;;1.90;1.80;;;9.90;99.90;;;10.46;100.00;96615.75;10434207;28;20221;-66
2023/10/31 05:09:55;;;;;;;2.13;2.00;;;9.90;99.90;;;10.56;100.00;96610.16;10431904;28;20989;-66
2023/10/31 05:14:58;;;;;;;2.55;1.70;;;9.90;99.90;;;10.55;100.00;96616.06;10432139;28;20232;-67
2023/10/31 05:20:01;;;;;;;1.88;1.77;;;9.90;99.90;;;10.49;100.00;96615.84;10431388;28;20214;-67
2023/10/31 05:25:07;;;;;;;1.98;1.88;;;9.90;99.90;;;10.43;100.00;96615.63;10438290;28;20236;-67
2023/10/31 05:30:12;;;;;;;2.00;1.80;;;9.80;99.90;;;10.33;100.00;96625.50;10440610;28;20228;-66
2023/10/31 05:35:15;;;;;;;1.90;1.70;;;9.70;99.90;;;10.27;100.00;96630.38;10441143;28;20235;-66
2023/10/31 05:40:22;;;;;;;1.80;1.70;;;9.70;99.90;;;10.23;100.00;96643.81;10436206;28;20229;-66
2023/10/31 05:45:25;;;;;;;1.80;1.70;;;9.70;99.90;;;10.19;100.00;96647.06;10441330;28;20232;-66
2023/10/31 05:50:28;;;;;;;1.73;1.63;;;9.70;99.90;;;10.17;100.00;96653.78;10445708;28;20224;-67
2023/10/31 05:55:34;;;;;;;6.82;6.13;;;9.60;99.90;;;10.28;100.00;96661.91;10435739;28;20233;-67
2023/10/31 06:00:38;;;;;;;4.47;4.18;;;9.80;99.90;;;10.36;100.00;96669.03;10447805;28;20236;-66
2023/10/31 06:05:43;;;;;;;3.03;2.83;;;9.70;99.90;;;10.32;100.00;96679.06;10441038;28;20235;-67
2023/10/31 06:10:48;;;;;;;2.33;2.22;;;9.70;99.90;;;10.40;100.00;96692.16;10438841;28;20233;-66
2023/10/31 06:15:51;;;;;;;2.55;2.35;;;9.70;99.90;;;10.32;100.00;96700.38;10439735;28;20689;-67
2023/10/31 06:20:54;;;;;;;1.90;1.80;;;9.60;99.90;;;10.31;100.00;96708.84;10438970;28;20648;-67
2023/10/31 06:25:59;;;;;;;2.20;2.10;;;9.60;99.90;;;10.33;100.00;96714.00;10435588;28;20229;-68
2023/10/31 06:31:02;;;;;;;2.28;2.08;;;9.60;99.90;;;10.14;100.00;96722.59;10436246;28;20600;-67
2023/10/31 06:36:08;;;;;;;2.20;2.00;;;9.50;99.90;;;10.25;100.00;96726.47;10436471;28;20233;-67
2023/10/31 06:41:12;;;;;;;2.38;2.17;;;9.60;99.90;;;10.34;100.00;96734.50;10436435;28;20232;-67
2023/10/31 06:46:16;;;;;;;2.00;1.90;;;9.70;99.90;;;10.31;100.00;96734.38;10431167;28;20335;-67
2023/10/31 06:51:19;;;;;;;1.98;1.88;;;9.70;99.90;;;10.24;100.00;96739.16;10437105;28;20232;-67
2023/10/31 06:56:23;;;;;;;2.10;2.00;;;9.70;99.90;;;10.34;100.00;96739.63;10434124;28;20234;-67
2023/10/31 07:01:27;;;;;;;1.70;1.70;;;9.70;99.90;;;10.28;100.00;96741.94;10436321;28;20316;-67
2023/10/31 07:06:30;;;;;;;2.47;2.38;;;9.70;99.90;;;10.47;100.00;96751.22;10434204;28;20255;-67
2023/10/31 07:11:35;;;;;;;2.83;2.58;;;9.80;99.90;;;10.72;100.00;96775.13;10431903;28;20724;-67
2023/10/31 07:16:38;;;;;;;1.90;1.80;;;9.90;99.90;;;10.71;100.00;96776.81;10431196;28;20225;-68
2023/10/31 07:21:41;;;;;;;2.70;2.13;;;10.00;99.90;;;10.61;100.00;96782.38;10432186;28;20572;-67
2023/10/31 07:26:46;;;;;;;1.63;1.60;;;10.00;99.90;;;10.60;100.00;96778.97;10432750;28;20579;-67
2023/10/31 07:31:49;;;;;;;1.95;1.75;;;10.00;99.90;;;10.71;100.00;96781.94;10437022;28;20774;-67
2023/10/31 07:36:52;;;;;;;1.90;1.80;;;10.00;99.90;;;10.69;100.00;96783.56;10433319;28;20229;-69
2023/10/31 07:41:57;;;;;;;1.80;1.70;;;10.10;99.90;;;10.76;100.00;96785.56;10434385;28;20255;-67
2023/10/31 07:47:00;;;;;;;1.77;1.67;;;10.10;99.90;;;10.77;100.00;96791.53;10439802;28;20344;-68
2023/10/31 07:52:03;;;;;;;1.73;1.63;;;10.20;99.90;;;10.96;100.00;96801.66;10434567;28;20224;-67
2023/10/31 07:57:09;;;;;;;2.20;2.10;;;10.30;99.90;;;11.12;100.00;96810.75;10445609;28;20225;-67
2023/10/31 08:02:12;;;;;;;2.22;2.13;;;10.40;99.90;;;10.91;100.00;96812.53;10401473;28;1159596;-67
2023/10/31 08:07:16;;;;;;;2.58;2.38;;;10.30;99.90;;;10.90;100.00;96816.75;10448645;28;20231;-67
2023/10/31 08:12:20;;;;;;;2.60;2.40;;;10.30;99.90;;;11.11;100.00;96826.94;10439709;28;20317;-67
2023/10/31 08:17:23;;;;;;;2.25;2.15;;;10.40;99.90;;;11.12;100.00;96830.34;10449270;28;20701;-67
2023/10/31 08:22:27;;;;;;;2.40;2.20;;;10.40;99.90;;;11.08;100.00;96841.28;10446657;28;20237;-67
2023/10/31 08:27:31;;;;;;;1.60;1.50;;;10.50;99.90;;;11.19;100.00;96845.13;10446701;28;20234;-67
2023/10/31 08:32:34;;;;;;;1.83;1.73;;;10.60;99.90;;;11.28;100.00;96841.22;10448260;28;20239;-66
2023/10/31 08:37:38;;;;;;;1.70;1.60;;;10.70;99.90;;;11.27;100.00;96836.03;10449445;28;20221;-66
2023/10/31 08:42:43;;;;;;;2.40;1.65;;;10.70;99.90;;;11.45;100.00;96846.13;10445787;28;20397;-67
2023/10/31 08:47:46;;;;;;;2.10;1.92;;;10.80;99.90;;;11.55;100.00;96850.75;10445852;28;20225;-68
2023/10/31 08:52:49;;;;;;;2.20;2.00;;;10.90;99.90;;;11.58;100.00;96845.72;10446181;28;20229;-66
2023/10/31 08:57:54;;;;;;;2.65;1.95;;;11.00;99.90;;;11.73;100.00;96843.75;10444476;28;20634;-67
2023/10/31 09:02:57;;;;;;;1.90;1.80;;;11.10;99.90;;;11.84;100.00;96856.03;10444891;28;20236;-66
2023/10/31 09:08:00;;;;;;;1.92;1.80;;;11.10;99.90;;;11.98;100.00;96857.44;10449804;28;20225;-66
2023/10/31 09:13:05;;;;;;;2.97;2.10;;;11.20;99.90;;;12.15;100.00;96858.88;10444060;28;20243;-66
2023/10/31 09:18:08;;;;;;;5.20;3.03;;;11.40;99.90;;;12.49;100.00;96860.03;10445462;28;20742;-67
2023/10/31 09:23:11;;;;;;;3.20;1.90;;;11.70;99.90;;;12.66;100.00;96857.16;10445706;28;20328;-67
2023/10/31 09:28:16;;;;;;;2.83;2.63;;;12.00;99.90;;;12.75;100.00;96847.19;10441185;28;20318;-66
2023/10/31 09:33:19;;;;;;;3.30;1.90;;;12.20;99.90;;;13.23;100.00;96836.72;10438304;28;20728;-66
2023/10/31 09:38:22;;;;;;;2.33;1.75;;;12.60;99.90;;;13.46;98.16;96835.75;10436826;28;20703;-67
2023/10/31 09:43:27;;;;;;;2.42;1.60;;;12.90;99.90;;;13.61;98.67;96837.00;10437405;28;20253;-66
2023/10/31 09:48:30;;;;;;;1.55;1.45;;;13.00;99.90;;;13.54;93.31;96843.66;10438099;28;20339;-66
2023/10/31 09:53:35;;;;;;;2.22;1.58;;;13.00;99.90;;;13.70;95.75;96834.69;10443077;28;20228;-66
2023/10/31 09:58:41;;;;;;;2.55;1.80;;;13.10;99.90;;;13.72;92.37;96845.88;10438999;28;20229;-66
2023/10/31 10:03:44;;;;;;;3.55;1.67;;;13.00;99.90;;;13.75;92.05;96843.41;10436854;28;20232;-66
2023/10/31 10:08:47;;;;;;;3.42;1.83;;;13.00;99.90;;;13.74;92.06;96849.38;10442441;28;20754;-66
2023/10/31 10:13:54;;;;;;;2.60;1.70;;;12.90;99.90;;;13.65;92.02;96856.78;10439671;28;20255;-67
2023/10/31 10:18:57;;;;;;;3.08;1.63;;;12.80;99.90;;;13.87;89.25;96861.72;10436451;28;20221;-67
2023/10/31 10:24:00;;;;;;;3.80;1.95;;;13.00;99.90;;;13.80;87.39;96852.13;10440956;28;20642;-66
2023/10/31 10:29:05;;;;;;;2.50;1.58;;;12.90;99.90;;;13.70;86.08;96866.38;10436183;28;20247;-66
2023/10/31 10:34:09;;;;;;;2.28;1.70;;;13.00;99.90;;;13.74;91.07;96872.50;10437850;28;20237;-67
2023/10/31 10:39:12;;;;;;;2.05;1.55;;;13.00;99.90;;;13.67;91.73;96876.56;10438756;28;20225;-66
2023/10/31 10:44:17;;;;;;;2.47;1.60;;;12.80;99.90;;;13.56;90.06;96887.34;10443040;28;20239;-66
2023/10/31 10:49:26;;;;;;;2.95;2.15;;;12.70;99.90;;;13.64;89.17;96885.88;10441191;28;20228;-66
2023/10/31 10:54:36;;;;;;;3.25;1.90;;;12.70;99.90;;;13.43;88.58;96893.81;10438130;28;20307;-66
2023/10/31 10:59:43;;;;;;;3.70;2.10;;;12.60;99.90;;;13.32;90.96;96896.06;10442654;28;20225;-66
2023/10/31 11:04:48;;;;;;;4.15;2.05;;;12.40;99.90;;;13.33;90.15;96890.09;10440248;28;20272;-67
2023/10/31 11:09:51;;;;;;;3.70;1.80;;;12.50;99.90;;;13.38;89.72;96898.81;10438889;28;20225;-66
2023/10/31 11:14:57;;;;;;;2.80;2.00;;;12.40;99.90;;;13.19;93.95;96907.63;10436513;28;20343;-66
2023/10/31 11:20:03;;;;;;;2.13;1.95;;;12.30;99.90;;;13.08;95.92;96904.72;10443972;28;20231;-66
2023/10/31 11:25:09;;;;;;;2.70;2.20;;;12.40;99.90;;;13.35;98.08;96906.41;10442988;28;20298;-67
2023/10/31 11:30:30;;;;;;;4.75;2.22;;;12.50;99.90;;;13.40;92.07;96911.69;10431398;28;20869;-69
2023/10/31 11:35:35;;;;;;;3.17;2.03;;;12.60;99.90;;;13.70;87.94;96917.72;10426850;28;20235;-67
2023/10/31 11:40:39;;;;;;;2.20;2.00;;;12.70;99.90;;;13.72;87.55;96920.38;10428688;28;20719;-66
2023/10/31 11:45:47;;;;;;;3.70;1.90;;;12.80;99.90;;;13.99;85.11;96925.41;10434059;28;20660;-67
2023/10/31 11:50:51;;;;;;;2.67;2.40;;;13.20;99.90;;;13.98;85.33;96928.81;10430581;28;20224;-67
2023/10/31 11:55:56;;;;;;;3.13;2.10;;;13.30;99.90;;;13.76;87.93;96940.16;10429907;28;20302;-67
2023/10/31 12:01:05;;;;;;;3.45;2.13;;;12.80;99.90;;;13.71;88.43;96941.75;10430071;28;20224;-66
2023/10/31 12:06:10;;;;;;;2.75;1.90;;;12.70;99.90;;;13.62;89.97;96934.63;10429041;28;20763;-67
2023/10/31 12:11:15;;;;;;;2.33;1.80;;;12.70;99.90;;;13.79;88.04;96940.25;10430017;28;20228;-67
2023/10/31 12:16:20;;;;;;;4.05;2.00;;;12.70;99.90;;;13.65;88.56;96944.09;10429250;28;20875;-66
2023/10/31 12:21:39;;;;;;;3.55;1.90;;;12.80;99.90;;;13.58;89.21;96942.19;10429278;28;20225;-67
2023/10/31 12:26:44;;;;;;;3.30;2.10;;;12.60;99.90;;;13.54;90.68;96943.81;10430024;28;20221;-66
2023/10/31 12:31:52;;;;;;;2.35;2.00;;;12.60;99.90;;;13.36;92.95;96948.34;10429337;28;20225;-66
2023/10/31 12:36:59;;;;;;;3.40;2.03;;;12.40;99.90;;;13.15;94.39;96951.94;10429867;28;20217;-66
2023/10/31 12:42:04;;;;;;;3.38;2.28;;;12.40;99.90;;;12.94;98.12;96947.00;10442165;28;20706;-66
2023/10/31 12:47:10;;;;;;;2.83;2.15;;;12.20;99.90;;;12.92;100.00;96947.78;10436709;28;20237;-67
2023/10/31 12:52:13;;;;;;;3.13;2.47;;;12.20;99.90;;;12.86;100.00;96943.31;10444386;28;20232;-66
2023/10/31 12:57:16;;;;;;;3.78;2.65;;;12.00;99.90;;;12.71;100.00;96953.94;10446841;28;20328;-66
2023/10/31 13:02:21;;;;;;;5.15;2.15;;;12.10;99.90;;;12.61;100.00;96952.72;10445570;28;20294;-66
2023/10/31 13:07:28;;;;;;;2.45;2.00;;;12.00;99.90;;;12.75;100.00;96948.06;10447738;28;20279;-66
2023/10/31 13:12:33;;;;;;;3.28;2.50;;;12.10;99.90;;;12.90;100.00;96946.84;10445067;28;20232;-66
2023/10/31 13:17:38;;;;;;;5.38;2.53;;;12.20;99.90;;;13.08;100.00;96950.03;10446380;28;20229;-65
2023/10/31 13:22:42;;;;;;;4.82;2.83;;;12.30;99.90;;;13.25;100.00;96960.84;10446405;28;20241;-66
2023/10/31 13:27:50;;;;;;;5.40;2.17;;;12.40;99.90;;;13.36;99.06;96944.09;10438291;28;20270;-66
2023/10/31 13:32:57;;;;;;;3.53;2.15;;;12.50;99.90;;;13.39;99.71;96956.16;10442045;28;20336;-66
2023/10/31 13:38:00;;;;;;;3.53;1.95;;;12.60;99.90;;;13.61;95.81;96957.69;10438919;28;20708;-66
2023/10/31 13:43:05;;;;;;;2.65;1.83;;;12.70;99.90;;;13.51;95.40;96967.69;10439275;28;20809;-66
2023/10/31 13:48:11;;;;;;;2.67;2.20;;;12.70;99.90;;;13.57;97.65;96971.28;10444066;28;20236;-66
2023/10/31 13:53:14;;;;;;;1.80;1.60;;;12.70;99.90;;;13.61;96.88;96978.22;10442936;28;20225;-67
2023/10/31 13:58:17;;;;;;;3.78;3.47;;;12.80;99.90;;;13.45;96.98;96998.31;10440975;28;20732;-67
2023/10/31 14:03:22;;;;;;;8.55;5.38;;;12.60;99.90;;;13.54;96.03;96996.84;10442337;28;20260;-67
2023/10/31 14:08:25;;;;;;;6.45;5.43;;;12.50;99.90;;;13.37;97.14;96992.03;10443165;28;20243;-66
2023/10/31 14:13:29;;;;;;;3.00;2.70;;;12.40;99.90;;;13.26;98.18;96993.41;10442171;28;20615;-67
2023/10/31 14:18:34;;;;;;;1.80;1.70;;;12.40;99.90;;;13.29;97.08;97001.19;10439606;28;20240;-66
2023/10/31 14:23:37;;;;;;;1.15;1.15;;;12.40;99.90;;;13.35;96.03;97006.50;10438458;28;20229;-66
2023/10/31 14:28:41;;;;;;;2.63;1.60;;;12.40;99.90;;;13.44;95.67;97017.06;10434469;28;20252;-67
2023/10/31 14:33:46;;;;;;;4.70;4.30;;;12.60;99.90;;;13.46;95.62;97018.00;10436339;28;20647;-65
2023/10/31 14:38:49;;;;;;;16.58;15.15;;;12.50;99.90;;;13.34;96.94;97035.59;10435165;28;20222;-67
2023/10/31 14:43:52;;;;;;;5.55;5.13;;;12.50;99.90;;;13.26;98.21;97031.88;10435447;28;20235;-66
2023/10/31 14:48:57;;;;;;;5.15;2.10;;;12.50;99.90;;;13.19;98.91;97040.16;10439457;28;20240;-68
2023/10/31 14:54:00;;;;;;;2.58;1.80;;;12.50;99.90;;;13.07;100.00;97035.50;10435214;28;20236;-67
2023/10/31 14:59:04;;;;;;;3.65;3.03;;;12.50;99.90;;;13.07;100.00;97044.06;10436480;28;20222;-66
2023/10/31 15:04:08;;;;;;;2.25;2.05;;;12.50;99.90;;;13.04;100.00;97041.38;10436057;28;20328;-66
2023/10/31 15:09:12;;;;;;;2.25;2.15;;;12.50;99.90;;;13.21;100.00;97047.09;10433239;28;20256;-65
2023/10/31 15:14:15;;;;;;;2.42;2.05;;;12.50;99.90;;;13.12;99.65;97051.06;10438374;28;20225;-66
2023/10/31 15:19:19;;;;;;;3.47;3.17;;;12.40;99.90;;;13.02;100.00;97058.44;10437039;28;20256;-66
2023/10/31 15:24:23;;;;;;;5.60;3.92;;;12.40;99.90;;;12.99;100.00;97060.00;10441833;28;20239;-66
2023/10/31 15:29:26;;;;;;;5.45;4.95;;;12.40;99.90;;;12.96;100.00;97072.72;10434042;28;20229;-69
2023/10/31 15:34:30;;;;;;;3.10;2.90;;;12.30;99.90;;;12.98;100.00;97081.34;10437578;28;20303;-66
2023/10/31 15:39:33;;;;;;;5.25;4.75;;;12.30;99.90;;;12.82;100.00;97088.53;10437238;28;20229;-66
2023/10/31 15:44:38;;;;;;;3.92;3.53;;;12.30;99.90;;;12.66;100.00;97098.16;10433805;28;20229;-68
2023/10/31 15:49:42;;;;;;;4.22;3.47;;;12.10;99.90;;;12.52;100.00;97098.53;10436893;28;20228;-66
2023/10/31 15:54:46;;;;;;;2.80;2.60;;;12.00;99.90;;;12.33;100.00;97103.75;10435694;28;20307;-66
2023/10/31 15:59:49;;;;;;;5.63;3.42;;;11.90;99.90;;;12.24;100.00;97116.25;10434985;28;20841;-66
2023/10/31 16:04:53;;;;;;;8.07;4.57;;;11.70;99.90;;;12.06;100.00;97135.22;10436164;28;20232;-66
2023/10/31 16:09:56;;;;;;;4.80;4.10;;;11.60;99.90;;;12.07;100.00;97129.25;10434297;28;20233;-65
2023/10/31 16:15:00;;;;;;;5.90;4.35;;;11.50;99.90;;;11.85;100.00;97124.09;10441903;28;20233;-66
2023/10/31 16:20:06;;;;;;;5.57;5.00;;;11.40;99.90;;;11.77;100.00;97136.56;10445825;28;20221;-66
2023/10/31 16:25:09;;;;;;;7.22;6.53;;;11.30;99.90;;;11.75;100.00;97152.69;10437396;28;20252;-66
2023/10/31 16:30:14;;;;;;;5.03;4.53;;;11.20;99.90;;;11.69;100.00;97159.28;10445281;28;20328;-67
2023/10/31 16:35:19;;;;;;;19.95;15.18;;;11.20;99.90;;;11.65;100.00;97167.66;10446196;28;20233;-66
2023/10/31 16:40:23;;;;;;;24.77;17.10;;;11.20;99.90;;;11.68;100.00;97182.28;10445655;28;20256;-67
2023/10/31 16:45:27;;;;;;;8.68;7.97;;;11.10;99.90;;;11.67;100.00;97186.50;10445991;28;20236;-66
2023/10/31 16:50:32;;;;;;;10.23;9.25;;;11.10;99.90;;;11.61;100.00;97185.38;10444782;28;20221;-66
2023/10/31 16:55:36;;;;;;;12.52;11.52;;;11.10;99.90;;;11.53;100.00;97195.28;10440435;28;20261;-66
2023/10/31 17:00:41;;;;;;;13.60;12.30;;;11.00;99.90;;;11.50;100.00;97205.41;10447099;28;20585;-66
2023/10/31 17:05:45;;;;;;;7.38;6.60;;;11.00;99.90;;;11.45;100.00;97209.47;10440719;28;20325;-67
2023/10/31 17:10:49;;;;;;;5.97;5.57;;;10.90;99.90;;;11.33;100.00;97220.06;10436995;28;20228;-67
2023/10/31 17:15:53;;;;;;;10.02;9.10;;;10.80;99.90;;;11.38;100.00;97233.88;10444476;28;20351;-68
2023/10/31 17:20:58;;;;;;;7.45;6.72;;;10.80;99.90;;;11.40;100.00;97237.41;10437877;28;20278;-66
2023/10/31 17:26:04;;;;;;;9.25;8.55;;;10.80;99.90;;;11.34;100.00;97252.50;10446481;28;20282;-66
2023/10/31 17:31:08;;;;;;;5.97;5.47;;;10.80;99.90;;;11.24;100.00;97243.50;10447641;28;20621;-66
2023/10/31 17:36:14;;;;;;;4.35;4.15;;;10.70;99.90;;;11.22;100.00;97263.06;10436047;28;20226;-66
2023/10/31 17:41:17;;;;;;;5.68;3.85;;;10.70;99.90;;;11.16;100.00;97275.56;10438171;28;20225;-66
2023/10/31 17:46:20;;;;;;;9.05;8.32;;;10.70;99.90;;;11.18;100.00;97273.94;10439115;28;20299;-67
2023/10/31 17:51:24;;;;;;;9.07;8.27;;;10.70;99.90;;;11.11;100.00;97279.59;10436623;28;20239;-67
2023/10/31 17:56:28;;;;;;;12.70;11.70;;;10.60;99.90;;;11.16;100.00;97290.03;10436318;28;20231;-67
2023/10/31 18:01:31;;;;;;;9.43;8.77;;;10.60;99.90;;;11.07;100.00;97287.06;10434349;28;20240;-67
2023/10/31 18:06:35;;;;;;;8.60;7.90;;;10.60;99.90;;;11.09;100.00;97294.00;10438809;28;20708;-67
2023/10/31 18:11:39;;;;;;;6.68;6.18;;;10.60;99.90;;;11.07;100.00;97303.28;10439630;28;20233;-66
2023/10/31 18:16:42;;;;;;;6.25;5.65;;;10.60;99.90;;;11.12;100.00;97318.84;10429598;28;20258;-67
2023/10/31 18:21:46;;;;;;;4.25;3.95;;;10.60;99.90;;;11.13;100.00;97324.03;10424178;28;20225;-66
2023/10/31 18:26:50;;;;;;;5.93;5.43;;;10.60;99.90;;;11.20;100.00;97332.84;10426783;28;20225;-66
2023/10/31 18:31:55;;;;;;;10.00;9.23;;;10.60;99.90;;;11.09;100.00;97334.03;10423203;28;20649;-68
2023/10/31 18:37:00;;;;;;;10.25;9.45;;;10.60;99.90;;;11.12;100.00;97339.31;10422338;28;20427;-67
2023/10/31 18:42:04;;;;;;;8.50;7.80;;;10.70;99.90;;;11.09;100.00;97342.59;10430188;28;20233;-67
2023/10/31 18:47:12;;;;;;;6.40;5.82;;;10.60;99.90;;;11.13;100.00;97351.28;10421503;28;20607;-66
2023/10/31 18:52:17;;;;;;;5.45;5.05;;;10.60;99.90;;;11.22;100.00;97350.03;10439106;28;20335;-67
2023/10/31 18:57:21;;;;;;;4.53;4.22;;;10.70;99.90;;;11.29;100.00;97356.28;10424542;28;20221;-67
2023/10/31 19:02:25;;;;;;;5.22;4.72;;;10.70;99.90;;;11.26;100.00;97361.28;10429615;28;20251;-66
2023/10/31 19:07:29;;;;;;;5.82;5.22;;;10.70;99.90;;;11.28;100.00;97369.91;10428209;28;20740;-67
2023/10/31 19:12:33;;;;;;;4.57;4.22;;;10.70;99.90;;;11.14;100.00;97366.69;10420555;28;20231;-66
2023/10/31 19:17:37;;;;;;;3.78;3.50;;;10.60;99.90;;;11.05;100.00;97373.94;10431496;28;20251;-66
2023/10/31 19:22:41;;;;;;;4.97;4.57;;;10.60;99.90;;;11.07;100.00;97374.88;10423987;28;20229;-66
2023/10/31 19:27:45;;;;;;;6.45;5.97;;;10.50;99.90;;;11.05;100.00;97376.50;10413221;28;20229;-67
2023/10/31 19:32:48;;;;;;;3.50;3.30;;;10.60;99.90;;;11.26;100.00;97376.63;10407920;28;20724;-67
2023/10/31 19:37:52;;;;;;;3.38;3.17;;;10.60;99.90;;;11.13;100.00;97385.44;10414083;28;20776;-67
2023/10/31 19:42:56;;;;;;;3.50;3.20;;;10.60;99.90;;;11.17;100.00;97394.97;10411142;28;20221;-67
2023/10/31 19:47:59;;;;;;;4.05;3.75;;;10.60;99.90;;;11.14;100.00;97397.41;10403188;28;20230;-67
2023/10/31 19:53:04;;;;;;;3.35;3.10;;;10.60;99.90;;;11.24;100.00;97389.34;10421083;28;20236;-67
2023/10/31 19:58:07;;;;;;;5.30;4.90;;;10.60;99.90;;;11.15;100.00;97399.13;10415906;28;20830;-67
2023/10/31 20:03:12;;;;;;;3.50;3.30;;;10.60;99.90;;;11.13;100.00;97387.97;10421512;28;20232;-67
2023/10/31 20:08:17;;;;;;;4.95;4.65;;;10.60;99.90;;;11.08;100.00;97411.59;10418108;28;20367;-67
2023/10/31 20:13:22;;;;;;;3.40;3.20;;;10.60;99.90;;;10.97;100.00;97411.94;10423461;28;20241;-67
2023/10/31 20:18:27;;;;;;;3.67;3.45;;;10.50;99.90;;;11.09;100.00;97423.56;10420737;28;20225;-67
2023/10/31 20:23:31;;;;;;;5.20;4.80;;;10.70;99.90;;;11.08;100.00;97422.69;10418488;28;20243;-64
2023/10/31 20:28:35;;;;;;;5.53;5.03;;;10.60;99.90;;;11.00;100.00;97424.00;10420591;28;20278;-65
2023/10/31 20:33:40;;;;;;;5.00;4.40;;;10.60;99.90;;;11.05;100.00;97423.41;10423053;28;20260;-65
2023/10/31 20:38:44;;;;;;;66.78;41.80;;;10.60;99.90;;;11.03;100.00;97419.03;10422560;28;20339;-67
2023/10/31 20:43:47;;;;;;;20.88;13.95;;;10.50;99.90;;;11.03;100.00;97424.13;10422534;28;20231;-65
2023/10/31 20:48:51;;;;;;;5.43;5.00;;;10.50;99.90;;;10.95;100.00;97421.19;10419754;28;20772;-65
2023/10/31 20:53:55;;;;;;;4.10;3.90;;;10.50;99.90;;;11.00;100.00;97413.78;10421465;28;20248;-64